Time;durP1;ratioP1;P1;durP2;ratioP2;P2;SDS_P1;SDS_P2;PMS_P1;PMS_P2;Temp;Humidity;BMP_temperature;BMP_pressure;BME280_temperature;BME280_humidity;BME280_pressure;Samples;Min_cycle;Max_cycle;Signal;HPM_P1;HPM_P2
2023/11/25 00:00:46;;;;;;;2.23;1.30;;;0.30;99.90;;;;;;2091904;28;20709;-67
2023/11/25 00:01:47;;;;;;;2.22;1.02;;;0.30;99.90;;;;;;2093931;28;20217;-67
2023/11/25 00:02:50;;;;;;;1.43;0.90;;;0.20;99.90;;;;;;2090429;28;20228;-67
2023/11/25 00:03:51;;;;;;;2.10;1.00;;;0.30;99.90;;;;;;2096138;28;20662;-67
2023/11/25 00:04:51;;;;;;;2.20;0.90;;;0.20;99.90;;;;;;2086089;28;20226;-67
2023/11/25 00:05:52;;;;;;;1.63;0.77;;;0.20;99.90;;;;;;2076638;28;20213;-67
2023/11/25 00:06:53;;;;;;;3.60;1.13;;;0.20;99.90;;;;;;2084811;28;20272;-67
2023/11/25 00:07:55;;;;;;;3.05;1.02;;;0.20;99.90;;;;;;2081420;28;20200;-66
2023/11/25 00:08:56;;;;;;;2.05;1.08;;;0.30;99.90;;;;;;2083072;28;20674;-67
2023/11/25 00:09:58;;;;;;;2.60;0.93;;;0.20;99.90;;;;;;2081236;28;20200;-67
2023/11/25 00:10:59;;;;;;;1.13;0.70;;;0.20;99.90;;;;;;2091244;28;20188;-67
2023/11/25 00:12:00;;;;;;;1.23;1.03;;;0.30;99.90;;;;;;2085108;28;20689;-67
2023/11/25 00:13:03;;;;;;;2.67;1.10;;;0.30;99.90;;;;;;2082018;28;20660;-67
2023/11/25 00:14:04;;;;;;;2.08;1.58;;;0.30;99.90;;;;;;2077002;28;20852;-67
2023/11/25 00:15:06;;;;;;;2.13;0.80;;;0.30;99.90;;;;;;2083725;28;20210;-67
2023/11/25 00:16:08;;;;;;;7.20;0.90;;;0.20;99.90;;;;;;2079697;28;20218;-67
2023/11/25 00:17:09;;;;;;;1.38;0.80;;;0.20;99.90;;;;;;2086644;28;20181;-67
2023/11/25 00:18:10;;;;;;;2.67;1.00;;;0.20;99.90;;;;;;2080486;28;20185;-67
2023/11/25 00:19:11;;;;;;;2.67;1.13;;;0.20;99.90;;;;;;2078966;28;20246;-67
2023/11/25 00:20:12;;;;;;;6.43;1.27;;;0.20;99.90;;;;;;2080540;28;20247;-67
2023/11/25 00:21:13;;;;;;;1.55;0.90;;;0.20;99.90;;;;;;2079290;28;20225;-67
2023/11/25 00:22:13;;;;;;;1.63;0.60;;;0.20;99.90;;;;;;2080360;28;20719;-67
2023/11/25 00:23:14;;;;;;;1.90;0.80;;;0.20;99.90;;;;;;2075698;28;20234;-66
2023/11/25 00:24:15;;;;;;;2.57;1.10;;;0.30;99.90;;;;;;2080309;28;20241;-67
2023/11/25 00:25:18;;;;;;;1.60;0.90;;;0.30;99.90;;;;;;2080908;28;20235;-67
2023/11/25 00:26:19;;;;;;;1.75;0.95;;;0.30;99.90;;;;;;2078089;28;20712;-67
2023/11/25 00:27:20;;;;;;;4.83;1.07;;;0.30;99.90;;;;;;2085768;28;20312;-67
2023/11/25 00:28:20;;;;;;;2.47;0.90;;;0.40;99.90;;;;;;2083175;28;20285;-67
2023/11/25 00:29:21;;;;;;;1.80;0.93;;;0.30;99.90;;;;;;2075252;28;20236;-67
2023/11/25 00:30:23;;;;;;;3.60;1.13;;;0.40;99.90;;;;;;2070610;28;20241;-67
2023/11/25 00:31:24;;;;;;;0.98;0.68;;;0.30;99.90;;;;;;2091455;28;20747;-67
2023/11/25 00:32:25;;;;;;;5.17;1.40;;;0.30;99.90;;;;;;2094329;28;20214;-67
2023/11/25 00:33:26;;;;;;;2.30;1.13;;;0.30;99.90;;;;;;2094148;28;20277;-67
2023/11/25 00:34:26;;;;;;;1.80;0.73;;;0.30;99.90;;;;;;2096239;28;20254;-67
2023/11/25 00:35:27;;;;;;;2.80;1.10;;;0.20;99.90;;;;;;2100930;28;20219;-68
2023/11/25 00:36:28;;;;;;;1.90;1.03;;;0.20;99.90;;;;;;2093318;28;20244;-67
2023/11/25 00:37:29;;;;;;;1.80;0.90;;;0.20;99.90;;;;;;2097714;28;20606;-67
2023/11/25 00:38:29;;;;;;;5.23;1.10;;;0.20;99.90;;;;;;2079893;28;20228;-67
2023/11/25 00:39:30;;;;;;;2.37;1.17;;;0.30;99.90;;;;;;2085390;28;20657;-67
2023/11/25 00:40:31;;;;;;;1.50;0.90;;;0.20;99.90;;;;;;2089055;28;20754;-67
2023/11/25 00:41:33;;;;;;;2.13;0.80;;;0.20;99.90;;;;;;2094019;28;20262;-67
2023/11/25 00:42:35;;;;;;;5.53;1.10;;;0.20;99.90;;;;;;2088593;28;20232;-67
2023/11/25 00:43:36;;;;;;;1.75;0.90;;;0.30;99.90;;;;;;2096374;28;20767;-67
2023/11/25 00:44:37;;;;;;;2.20;1.10;;;0.30;99.90;;;;;;2096301;28;20312;-67
2023/11/25 00:45:38;;;;;;;3.25;0.98;;;0.20;99.90;;;;;;2096430;28;20234;-67
2023/11/25 00:46:39;;;;;;;3.50;1.03;;;0.20;99.90;;;;;;2096302;28;20225;-67
2023/11/25 00:47:40;;;;;;;1.00;0.90;;;0.20;99.90;;;;;;2087974;28;20716;-67
2023/11/25 00:48:43;;;;;;;2.50;0.90;;;0.20;99.90;;;;;;2088304;28;20290;-67
2023/11/25 00:49:44;;;;;;;1.75;0.95;;;0.20;99.90;;;;;;2085950;28;20721;-67
2023/11/25 00:50:45;;;;;;;5.28;1.33;;;0.20;99.90;;;;;;2078718;28;20236;-67
2023/11/25 00:51:46;;;;;;;2.27;1.27;;;0.20;99.90;;;;;;2087473;28;20255;-67
2023/11/25 00:52:47;;;;;;;3.17;1.50;;;0.20;99.90;;;;;;2084243;28;20601;-67
2023/11/25 00:53:48;;;;;;;4.40;1.00;;;0.20;99.90;;;;;;2076902;28;20666;-67
2023/11/25 00:54:48;;;;;;;2.43;0.87;;;0.30;99.90;;;;;;2078024;28;20477;-67
2023/11/25 00:55:49;;;;;;;3.23;0.93;;;0.20;99.90;;;;;;2085921;28;20227;-67
2023/11/25 00:56:50;;;;;;;1.53;1.17;;;0.20;99.90;;;;;;2081567;28;20225;-67
2023/11/25 00:57:50;;;;;;;1.93;1.00;;;0.20;99.90;;;;;;2097286;28;20763;-67
2023/11/25 00:58:52;;;;;;;3.97;1.47;;;0.10;99.90;;;;;;2099728;28;20234;-67
2023/11/25 00:59:53;;;;;;;4.60;1.27;;;0.10;99.90;;;;;;2095158;28;20310;-67
2023/11/25 01:00:54;;;;;;;1.20;0.95;;;0.20;99.90;;;;;;2096220;28;20613;-67
2023/11/25 01:01:54;;;;;;;3.07;1.10;;;0.20;99.90;;;;;;2087990;28;20256;-67
2023/11/25 01:02:56;;;;;;;3.03;1.03;;;0.10;99.90;;;;;;2087814;28;20631;-68
2023/11/25 01:03:56;;;;;;;2.03;0.95;;;0.20;99.90;;;;;;2093960;28;20213;-67
2023/11/25 01:04:57;;;;;;;1.30;0.83;;;0.20;99.90;;;;;;2088073;28;20560;-68
2023/11/25 01:05:59;;;;;;;4.07;1.07;;;0.20;99.90;;;;;;2091655;28;20277;-67
2023/11/25 01:07:00;;;;;;;3.55;1.10;;;0.20;99.90;;;;;;2088301;28;20634;-67
2023/11/25 01:08:01;;;;;;;4.30;1.37;;;0.20;99.90;;;;;;2088203;28;20242;-68
2023/11/25 01:09:01;;;;;;;6.03;1.63;;;0.20;99.90;;;;;;2088595;28;20652;-68
2023/11/25 01:10:03;;;;;;;2.73;1.03;;;0.20;99.90;;;;;;2086254;28;20208;-68
2023/11/25 01:11:05;;;;;;;2.00;1.00;;;0.20;99.90;;;;;;2095073;28;20181;-68
2023/11/25 01:12:07;;;;;;;2.45;0.70;;;0.20;99.90;;;;;;2093066;28;20183;-68
2023/11/25 01:13:08;;;;;;;2.50;1.02;;;0.20;99.90;;;;;;2082705;28;20301;-67
2023/11/25 01:14:09;;;;;;;1.73;1.00;;;0.20;99.90;;;;;;2092090;28;20220;-67
2023/11/25 01:15:15;;;;;;;2.90;0.80;;;0.20;99.90;;;;;;2085968;28;20191;-68
2023/11/25 01:16:17;;;;;;;3.25;0.98;;;0.20;99.90;;;;;;2095577;28;20836;-67
2023/11/25 01:17:17;;;;;;;2.15;0.80;;;0.20;99.90;;;;;;2095492;28;20232;-68
2023/11/25 01:18:18;;;;;;;2.87;1.47;;;0.20;99.90;;;;;;2094409;28;20323;-67
2023/11/25 01:19:19;;;;;;;4.27;1.20;;;0.20;99.90;;;;;;2079304;28;20750;-68
2023/11/25 01:20:20;;;;;;;1.17;0.90;;;0.20;99.90;;;;;;2075308;28;20515;-67
2023/11/25 01:21:20;;;;;;;3.43;1.17;;;0.20;99.90;;;;;;2086767;28;20309;-67
2023/11/25 01:22:21;;;;;;;1.70;0.87;;;0.20;99.90;;;;;;2085579;28;20234;-68
2023/11/25 01:23:22;;;;;;;2.77;1.03;;;0.20;99.90;;;;;;2083704;28;20233;-67
2023/11/25 01:24:23;;;;;;;3.25;0.90;;;0.20;99.90;;;;;;2081678;28;20313;-67
2023/11/25 01:25:24;;;;;;;3.30;1.00;;;0.20;99.90;;;;;;2079735;28;20750;-68
2023/11/25 01:26:25;;;;;;;2.07;0.90;;;0.20;99.90;;;;;;2080062;28;20263;-68
2023/11/25 01:27:25;;;;;;;1.27;1.03;;;0.20;99.90;;;;;;2088365;28;20244;-68
2023/11/25 01:28:26;;;;;;;2.97;1.20;;;0.20;99.90;;;;;;2087569;28;20228;-67
2023/11/25 01:29:27;;;;;;;3.13;1.00;;;0.20;99.90;;;;;;2071399;28;20925;-67
2023/11/25 01:30:27;;;;;;;4.00;0.80;;;0.30;99.90;;;;;;2068696;28;20252;-68
2023/11/25 01:31:28;;;;;;;4.63;1.10;;;0.30;99.90;;;;;;2086013;28;20232;-68
2023/11/25 01:32:29;;;;;;;4.03;1.20;;;0.30;99.90;;;;;;2096208;28;20910;-67
2023/11/25 01:33:30;;;;;;;2.93;1.00;;;0.30;99.90;;;;;;2089665;28;20228;-68
2023/11/25 01:34:30;;;;;;;2.90;0.90;;;0.30;99.90;;;;;;2092141;28;20620;-68
2023/11/25 01:35:31;;;;;;;2.57;0.97;;;0.40;99.90;;;;;;2093836;28;20224;-68
2023/11/25 01:36:32;;;;;;;1.60;0.90;;;0.30;99.90;;;;;;2088039;28;20324;-68
2023/11/25 01:37:33;;;;;;;3.00;0.90;;;0.30;99.90;;;;;;2093900;28;20223;-67
2023/11/25 01:38:34;;;;;;;1.80;1.20;;;0.30;99.90;;;;;;2085740;28;20236;-68
2023/11/25 01:39:35;;;;;;;3.10;0.95;;;0.40;99.90;;;;;;2090317;28;20342;-67
2023/11/25 01:40:37;;;;;;;3.07;1.00;;;0.30;99.90;;;;;;2082758;28;20262;-68
2023/11/25 01:41:37;;;;;;;4.95;1.45;;;0.30;99.90;;;;;;2073427;28;20288;-68
2023/11/25 01:42:38;;;;;;;1.83;0.97;;;0.30;99.90;;;;;;2079561;28;20227;-67
2023/11/25 01:43:39;;;;;;;3.50;1.02;;;0.40;99.90;;;;;;2082496;28;20664;-68
2023/11/25 01:44:40;;;;;;;2.63;1.43;;;0.40;99.90;;;;;;2085437;28;20296;-67
2023/11/25 01:45:42;;;;;;;1.83;0.90;;;0.40;99.90;;;;;;2087179;28;20262;-67
2023/11/25 01:46:43;;;;;;;2.53;1.00;;;0.30;99.90;;;;;;2095869;28;20308;-67
2023/11/25 01:47:43;;;;;;;3.72;0.90;;;0.30;99.90;;;;;;2096063;28;20227;-67
2023/11/25 01:48:45;;;;;;;4.93;1.10;;;0.30;99.90;;;;;;2094405;28;20231;-67
2023/11/25 01:49:45;;;;;;;1.33;0.88;;;0.30;99.90;;;;;;2095709;28;20221;-68
2023/11/25 01:50:47;;;;;;;2.70;1.30;;;0.40;99.90;;;;;;2096153;28;20265;-67
2023/11/25 01:51:49;;;;;;;3.67;1.17;;;0.50;99.90;;;;;;2088177;28;20228;-68
2023/11/25 01:52:53;;;;;;;1.73;0.80;;;0.50;99.90;;;;;;2096543;28;20309;-67
2023/11/25 01:53:53;;;;;;;5.65;1.02;;;0.50;99.90;;;;;;2102749;28;20226;-68
2023/11/25 01:54:55;;;;;;;3.37;1.30;;;0.40;99.90;;;;;;2095955;28;20599;-68
2023/11/25 01:55:57;;;;;;;2.85;1.40;;;0.40;99.90;;;;;;2086722;28;20201;-68
2023/11/25 01:57:02;;;;;;;3.63;1.27;;;0.30;99.90;;;;;;2086482;28;20236;-67
2023/11/25 01:58:04;;;;;;;4.93;1.23;;;0.20;99.90;;;;;;2087703;28;20188;-67
2023/11/25 01:59:06;;;;;;;1.35;0.85;;;0.20;99.90;;;;;;2095926;28;20581;-67
2023/11/25 02:00:09;;;;;;;0.73;0.70;;;0.20;99.90;;;;;;2094777;28;20191;-67
2023/11/25 02:01:10;;;;;;;1.13;0.70;;;0.10;99.90;;;;;;2083751;28;20239;-68
2023/11/25 02:02:15;;;;;;;2.97;1.30;;;0.10;99.90;;;;;;2094091;28;20192;-67
2023/11/25 02:03:16;;;;;;;1.85;0.90;;;0.20;99.90;;;;;;2081760;28;20221;-67
2023/11/25 02:04:17;;;;;;;0.98;0.73;;;0.20;99.90;;;;;;2076704;28;20230;-67
2023/11/25 02:05:18;;;;;;;2.20;0.80;;;0.10;99.90;;;;;;2074040;28;20230;-67
2023/11/25 02:06:19;;;;;;;5.17;0.80;;;0.10;99.90;;;;;;2086099;28;20222;-67
2023/11/25 02:07:21;;;;;;;2.08;0.70;;;0.10;99.90;;;;;;2094656;28;20234;-67
2023/11/25 02:08:22;;;;;;;2.15;0.75;;;0.10;99.90;;;;;;2090964;28;20808;-67
2023/11/25 02:09:24;;;;;;;1.63;0.97;;;0.10;99.90;;;;;;2086376;28;20228;-68
2023/11/25 02:10:25;;;;;;;1.38;0.77;;;0.10;99.90;;;;;;2084016;28;20303;-67
2023/11/25 02:11:26;;;;;;;2.50;0.80;;;0.00;99.90;;;;;;2092720;28;20227;-67
2023/11/25 02:12:26;;;;;;;1.80;0.87;;;0.00;99.90;;;;;;2089150;28;20221;-67
2023/11/25 02:13:27;;;;;;;1.97;0.87;;;0.10;99.90;;;;;;2093708;28;20683;-67
2023/11/25 02:14:28;;;;;;;1.87;0.70;;;0.00;99.90;;;;;;2086520;28;20225;-67
2023/11/25 02:15:30;;;;;;;1.83;0.85;;;0.10;99.90;;;;;;2079850;28;20272;-68
2023/11/25 02:16:31;;;;;;;3.05;1.00;;;0.10;99.90;;;;;;2082642;28;20248;-68
2023/11/25 02:17:32;;;;;;;1.27;0.80;;;0.10;99.90;;;;;;2095441;28;20266;-67
2023/11/25 02:18:33;;;;;;;1.33;0.70;;;0.10;99.90;;;;;;2086053;28;20230;-68
2023/11/25 02:19:33;;;;;;;1.63;0.80;;;0.10;99.90;;;;;;2079658;28;20626;-67
2023/11/25 02:20:41;;;;;;;3.00;1.00;;;0.10;99.90;;;;;;2085033;28;20263;-67
2023/11/25 02:21:42;;;;;;;2.08;0.80;;;0.10;99.90;;;;;;2089354;28;20350;-68
2023/11/25 02:22:57;;;;;;;1.00;0.70;;;0.10;99.90;;;;;;2081217;28;20238;-68
2023/11/25 02:23:58;;;;;;;1.35;0.90;;;0.10;99.90;;;;;;2087210;28;20225;-68
2023/11/25 02:24:59;;;;;;;5.13;1.53;;;0.10;99.90;;;;;;2078108;28;20207;-68
2023/11/25 02:25:59;;;;;;;3.60;0.93;;;0.10;99.90;;;;;;2086743;28;20251;-68
2023/11/25 02:27:01;;;;;;;4.70;1.43;;;0.10;99.90;;;;;;2094665;28;20205;-68
2023/11/25 02:28:04;;;;;;;1.02;0.80;;;0.10;99.90;;;;;;2074634;28;20260;-68
2023/11/25 02:29:05;;;;;;;4.00;0.90;;;0.20;99.90;;;;;;2088508;28;20230;-68
2023/11/25 02:30:08;;;;;;;1.33;1.00;;;0.20;99.90;;;;;;2094480;28;20227;-67
2023/11/25 02:31:09;;;;;;;1.45;0.98;;;0.20;99.90;;;;;;2086749;28;20227;-69
2023/11/25 02:32:09;;;;;;;2.33;0.93;;;0.20;99.90;;;;;;2094598;28;20178;-67
2023/11/25 02:33:11;;;;;;;3.10;1.10;;;0.10;99.90;;;;;;2093028;28;20472;-67
2023/11/25 02:34:12;;;;;;;3.17;1.10;;;0.10;99.90;;;;;;2090810;28;20282;-68
2023/11/25 02:35:14;;;;;;;4.70;0.90;;;0.10;99.90;;;;;;2082493;28;20917;-68
2023/11/25 02:36:16;;;;;;;2.05;1.27;;;0.20;99.90;;;;;;2093237;28;20296;-68
2023/11/25 02:37:17;;;;;;;4.80;1.25;;;0.20;99.90;;;;;;2088718;28;20761;-68
2023/11/25 02:38:17;;;;;;;1.53;1.03;;;0.20;99.90;;;;;;2078920;28;20235;-67
2023/11/25 02:39:18;;;;;;;4.37;2.00;;;0.20;99.90;;;;;;2079113;28;20761;-67
2023/11/25 02:40:19;;;;;;;3.30;1.63;;;0.10;99.90;;;;;;2086423;28;20255;-67
2023/11/25 02:41:20;;;;;;;3.10;1.20;;;0.10;99.90;;;;;;2081197;28;20225;-67
2023/11/25 02:42:21;;;;;;;2.37;1.20;;;0.10;99.90;;;;;;2083461;28;20227;-67
2023/11/25 02:43:21;;;;;;;7.93;2.00;;;0.20;99.90;;;;;;2076006;28;20458;-67
2023/11/25 02:44:22;;;;;;;1.37;1.00;;;0.20;99.90;;;;;;2087109;28;20491;-67
2023/11/25 02:45:23;;;;;;;5.23;1.70;;;0.10;99.90;;;;;;2093671;28;20273;-67
2023/11/25 02:46:24;;;;;;;2.85;1.55;;;0.10;99.90;;;;;;2092958;28;20243;-69
2023/11/25 02:47:25;;;;;;;4.50;1.10;;;0.00;99.90;;;;;;2088082;28;20595;-67
2023/11/25 02:48:26;;;;;;;2.03;1.30;;;-0.10;99.90;;;;;;2086748;28;20243;-67
2023/11/25 02:49:26;;;;;;;4.57;1.30;;;-0.10;99.90;;;;;;2085443;28;20236;-67
2023/11/25 02:50:27;;;;;;;5.20;1.27;;;-0.10;99.90;;;;;;2094932;28;20309;-67
2023/11/25 02:51:28;;;;;;;3.20;1.10;;;-0.20;99.90;;;;;;2093543;28;20277;-67
2023/11/25 02:52:29;;;;;;;3.38;1.42;;;-0.20;99.90;;;;;;2085526;28;20237;-68
2023/11/25 02:53:30;;;;;;;4.17;1.10;;;-0.20;99.90;;;;;;2090349;28;20278;-67
2023/11/25 02:54:31;;;;;;;1.73;1.10;;;-0.20;99.90;;;;;;2092762;28;20239;-67
2023/11/25 02:55:31;;;;;;;5.43;2.07;;;-0.20;99.90;;;;;;2091971;28;20260;-67
2023/11/25 02:56:35;;;;;;;6.53;1.20;;;-0.20;99.90;;;;;;2080120;28;20271;-68
2023/11/25 02:57:38;;;;;;;1.90;1.00;;;-0.20;99.90;;;;;;2089253;28;20236;-67
2023/11/25 02:58:39;;;;;;;2.22;1.50;;;-0.10;99.90;;;;;;2090326;28;20230;-67
2023/11/25 02:59:39;;;;;;;1.40;1.10;;;-0.10;99.90;;;;;;2080843;28;20224;-67
2023/11/25 03:00:40;;;;;;;2.27;1.33;;;0.00;99.90;;;;;;2089681;28;20716;-67
2023/11/25 03:01:48;;;;;;;2.93;1.40;;;0.00;99.90;;;;;;2097349;28;20327;-67
2023/11/25 03:02:51;;;;;;;2.92;1.55;;;0.00;99.90;;;;;;2088811;28;20254;-67
2023/11/25 03:03:53;;;;;;;5.53;1.20;;;0.00;99.90;;;;;;2080671;28;20240;-68
2023/11/25 03:04:54;;;;;;;1.83;1.05;;;0.00;99.90;;;;;;2089070;28;20244;-67
2023/11/25 03:05:55;;;;;;;2.22;1.52;;;0.00;99.90;;;;;;2088840;28;20584;-67
2023/11/25 03:06:58;;;;;;;4.23;1.17;;;0.00;99.90;;;;;;2082416;28;20264;-67
2023/11/25 03:08:00;;;;;;;3.17;0.98;;;0.00;99.90;;;;;;2078132;28;20190;-68
2023/11/25 03:09:01;;;;;;;4.10;1.67;;;0.00;99.90;;;;;;2079254;28;20202;-67
2023/11/25 03:10:03;;;;;;;2.60;1.00;;;0.00;99.90;;;;;;2082126;28;20202;-67
2023/11/25 03:11:12;;;;;;;5.13;1.25;;;0.00;99.90;;;;;;2080397;28;20267;-67
2023/11/25 03:12:12;;;;;;;3.00;1.58;;;0.00;99.90;;;;;;2090899;28;20232;-68
2023/11/25 03:13:14;;;;;;;3.23;1.30;;;0.00;99.90;;;;;;2090089;28;20230;-67
2023/11/25 03:14:15;;;;;;;3.75;1.13;;;0.00;99.90;;;;;;2073999;28;20316;-67
2023/11/25 03:15:16;;;;;;;3.33;1.27;;;-0.10;99.90;;;;;;2082393;28;20233;-68
2023/11/25 03:16:24;;;;;;;1.70;1.00;;;-0.10;99.90;;;;;;2094922;28;20314;-67
2023/11/25 03:17:25;;;;;;;3.45;1.30;;;-0.20;99.90;;;;;;2081694;28;20253;-67
2023/11/25 03:18:26;;;;;;;2.60;1.60;;;-0.20;99.90;;;;;;2074476;28;20217;-67
2023/11/25 03:19:27;;;;;;;3.45;1.40;;;-0.20;99.90;;;;;;2090450;28;20232;-68
2023/11/25 03:20:27;;;;;;;3.30;1.10;;;-0.20;99.90;;;;;;2078577;28;20230;-68
2023/11/25 03:21:29;;;;;;;2.63;1.00;;;-0.20;99.90;;;;;;2081930;28;20224;-68
2023/11/25 03:22:29;;;;;;;5.72;1.15;;;-0.20;99.90;;;;;;2092842;28;20286;-68
2023/11/25 03:23:30;;;;;;;5.13;1.00;;;-0.20;99.90;;;;;;2095069;28;20744;-68
2023/11/25 03:24:31;;;;;;;2.33;1.00;;;-0.20;99.90;;;;;;2091883;28;20266;-68
2023/11/25 03:25:31;;;;;;;2.17;1.40;;;-0.30;99.90;;;;;;2084868;28;20311;-68
2023/11/25 03:26:32;;;;;;;2.33;1.00;;;-0.30;99.90;;;;;;2085705;28;20604;-68
2023/11/25 03:27:35;;;;;;;2.33;1.23;;;-0.30;99.90;;;;;;2094919;28;20227;-68
2023/11/25 03:28:35;;;;;;;3.35;1.00;;;-0.30;99.90;;;;;;2088984;28;20311;-68
2023/11/25 03:29:36;;;;;;;2.33;1.53;;;-0.30;99.90;;;;;;2083383;28;20240;-68
2023/11/25 03:30:37;;;;;;;3.67;1.10;;;-0.30;99.90;;;;;;2070016;28;20225;-68
2023/11/25 03:31:42;;;;;;;1.77;1.23;;;-0.40;99.90;;;;;;2078342;28;20693;-68
2023/11/25 03:32:43;;;;;;;2.53;1.00;;;-0.30;99.90;;;;;;2082704;28;20338;-68
2023/11/25 03:33:44;;;;;;;3.33;1.10;;;-0.30;99.90;;;;;;2076377;28;20242;-68
2023/11/25 03:34:44;;;;;;;2.17;1.13;;;-0.30;99.90;;;;;;2069698;28;20221;-68
2023/11/25 03:35:45;;;;;;;2.47;1.10;;;-0.30;99.90;;;;;;2086999;28;20719;-68
2023/11/25 03:36:47;;;;;;;2.03;1.00;;;-0.30;99.90;;;;;;2092307;28;20224;-68
2023/11/25 03:37:48;;;;;;;2.90;1.20;;;-0.40;99.90;;;;;;2083180;28;20624;-68
2023/11/25 03:38:50;;;;;;;1.95;0.90;;;-0.40;99.90;;;;;;2085298;28;20216;-67
2023/11/25 03:39:50;;;;;;;1.75;1.10;;;-0.40;99.90;;;;;;2084516;28;20225;-68
2023/11/25 03:40:52;;;;;;;1.70;1.07;;;-0.40;99.90;;;;;;2085808;28;20304;-68
2023/11/25 03:41:53;;;;;;;1.88;1.02;;;-0.40;99.90;;;;;;2086291;28;20283;-68
2023/11/25 03:42:54;;;;;;;2.63;1.30;;;-0.40;99.90;;;;;;2078476;28;20689;-68
2023/11/25 03:43:54;;;;;;;4.70;1.20;;;-0.40;99.90;;;;;;2078158;28;20186;-68
2023/11/25 03:44:55;;;;;;;2.47;1.00;;;-0.40;99.90;;;;;;2083831;28;20194;-68
2023/11/25 03:45:57;;;;;;;5.07;2.07;;;-0.50;99.90;;;;;;2086394;28;20242;-68
2023/11/25 03:46:58;;;;;;;2.70;1.63;;;-0.50;99.90;;;;;;2084413;28;20199;-68
2023/11/25 03:47:59;;;;;;;3.95;1.13;;;-0.50;99.90;;;;;;2094506;28;20188;-68
2023/11/25 03:49:00;;;;;;;4.63;0.90;;;-0.40;99.90;;;;;;2094096;28;20208;-68
2023/11/25 03:50:00;;;;;;;5.97;1.40;;;-0.40;99.90;;;;;;2102629;28;20195;-68
2023/11/25 03:51:01;;;;;;;2.77;1.17;;;-0.50;99.90;;;;;;2102096;28;20246;-68
2023/11/25 03:52:02;;;;;;;10.27;1.50;;;-0.40;99.90;;;;;;2094489;28;20589;-68
2023/11/25 03:53:02;;;;;;;2.17;0.83;;;-0.40;99.90;;;;;;2094987;28;20199;-68
2023/11/25 03:54:03;;;;;;;3.47;1.00;;;-0.40;99.90;;;;;;2093969;28;20206;-68
2023/11/25 03:55:05;;;;;;;2.10;1.10;;;-0.40;99.90;;;;;;2094462;28;20755;-67
2023/11/25 03:56:06;;;;;;;2.15;0.93;;;-0.40;99.90;;;;;;2077982;28;20213;-68
2023/11/25 03:57:07;;;;;;;3.00;1.35;;;-0.40;99.90;;;;;;2078535;28;20636;-68
2023/11/25 03:58:07;;;;;;;2.33;1.20;;;-0.40;99.90;;;;;;2090820;28;20233;-67
2023/11/25 03:59:08;;;;;;;5.03;1.60;;;-0.40;99.90;;;;;;2092498;28;20608;-68
2023/11/25 04:00:16;;;;;;;3.23;1.10;;;-0.40;99.90;;;;;;2090384;28;20194;-68
2023/11/25 04:01:16;;;;;;;3.47;0.95;;;-0.40;99.90;;;;;;2081729;28;20343;-67
2023/11/25 04:02:17;;;;;;;2.40;1.07;;;-0.50;99.90;;;;;;2078562;28;20231;-68
2023/11/25 04:03:18;;;;;;;4.30;1.10;;;-0.50;99.90;;;;;;2077517;28;20337;-67
2023/11/25 04:04:19;;;;;;;3.77;2.13;;;-0.40;99.90;;;;;;2082258;28;20257;-67
2023/11/25 04:05:22;;;;;;;1.60;1.13;;;-0.30;99.90;;;;;;2085076;28;20340;-68
2023/11/25 04:06:23;;;;;;;3.05;1.20;;;-0.40;99.90;;;;;;2085987;28;20221;-68
2023/11/25 04:07:23;;;;;;;3.50;1.50;;;-0.30;99.90;;;;;;2089887;28;20219;-67
2023/11/25 04:08:24;;;;;;;7.63;1.63;;;-0.30;99.90;;;;;;2077850;28;20210;-67
2023/11/25 04:09:25;;;;;;;1.47;1.00;;;-0.20;99.90;;;;;;2079788;28;20706;-67
2023/11/25 04:10:27;;;;;;;3.27;1.00;;;-0.20;99.90;;;;;;2092745;28;20310;-68
2023/11/25 04:11:27;;;;;;;3.35;1.30;;;-0.10;99.90;;;;;;2092825;28;20252;-67
2023/11/25 04:12:29;;;;;;;4.10;1.37;;;-0.20;99.90;;;;;;2103827;28;20227;-67
2023/11/25 04:13:29;;;;;;;1.70;0.93;;;-0.30;99.90;;;;;;2096663;28;20221;-67
2023/11/25 04:14:30;;;;;;;0.70;0.70;;;-0.20;99.90;;;;;;2096104;28;20224;-67
2023/11/25 04:15:31;;;;;;;1.83;1.13;;;-0.30;99.90;;;;;;2096302;28;20220;-67
2023/11/25 04:16:32;;;;;;;2.78;1.08;;;-0.30;99.90;;;;;;2094452;28;20244;-68
2023/11/25 04:17:33;;;;;;;4.10;1.00;;;-0.30;99.90;;;;;;2085885;28;20265;-67
2023/11/25 04:18:34;;;;;;;4.00;1.00;;;-0.30;99.90;;;;;;2088347;28;20244;-67
2023/11/25 04:19:35;;;;;;;2.57;1.60;;;-0.30;99.90;;;;;;2081956;28;20229;-67
2023/11/25 04:20:36;;;;;;;2.30;1.53;;;-0.40;99.90;;;;;;2079549;28;20253;-69
2023/11/25 04:21:40;;;;;;;2.70;1.03;;;-0.40;99.90;;;;;;2088000;28;20903;-68
2023/11/25 04:22:47;;;;;;;4.07;1.98;;;-0.30;99.90;;;;;;2095547;28;20656;-68
2023/11/25 04:23:55;;;;;;;2.40;1.00;;;-0.40;99.90;;;;;;2095867;28;20373;-68
2023/11/25 04:24:56;;;;;;;2.55;0.85;;;-0.40;99.90;;;;;;2076213;28;20651;-69
2023/11/25 04:25:56;;;;;;;3.30;1.40;;;-0.30;99.90;;;;;;2083230;28;20198;-69
2023/11/25 04:26:57;;;;;;;4.93;1.00;;;-0.30;99.90;;;;;;2088607;28;20203;-69
2023/11/25 04:27:58;;;;;;;1.93;1.47;;;-0.30;99.90;;;;;;2094817;28;20364;-69
2023/11/25 04:28:58;;;;;;;1.17;0.90;;;-0.30;99.90;;;;;;2102768;28;20282;-68
2023/11/25 04:29:59;;;;;;;2.50;0.93;;;-0.40;99.90;;;;;;2098799;28;20192;-69
2023/11/25 04:31:00;;;;;;;1.77;0.93;;;-0.40;99.90;;;;;;2094038;28;20629;-69
2023/11/25 04:32:00;;;;;;;1.83;0.90;;;-0.30;99.90;;;;;;2086851;28;20279;-67
2023/11/25 04:33:01;;;;;;;2.63;0.93;;;-0.30;99.90;;;;;;2086668;28;20196;-67
2023/11/25 04:34:02;;;;;;;3.97;1.23;;;-0.30;99.90;;;;;;2095108;28;20192;-67
2023/11/25 04:35:06;;;;;;;2.88;0.82;;;-0.30;99.90;;;;;;2093223;28;20195;-66
2023/11/25 04:36:09;;;;;;;2.28;0.80;;;-0.40;99.90;;;;;;2089521;28;20231;-66
2023/11/25 04:37:10;;;;;;;2.00;1.00;;;-0.50;99.90;;;;;;2081898;28;20275;-67
2023/11/25 04:38:10;;;;;;;2.20;1.27;;;-0.40;99.90;;;;;;2085727;28;20639;-66
2023/11/25 04:39:11;;;;;;;1.53;0.77;;;-0.50;99.90;;;;;;2093866;28;20240;-66
2023/11/25 04:40:13;;;;;;;1.40;1.07;;;-0.50;99.90;;;;;;2094388;28;20255;-67
2023/11/25 04:41:13;;;;;;;7.28;2.00;;;-0.60;99.90;;;;;;2082561;28;20711;-67
2023/11/25 04:42:14;;;;;;;3.03;0.77;;;-0.50;99.90;;;;;;2077111;28;20229;-67
2023/11/25 04:43:15;;;;;;;7.53;1.83;;;-0.60;99.90;;;;;;2083102;28;20256;-67
2023/11/25 04:44:15;;;;;;;6.10;1.57;;;-0.50;99.90;;;;;;2092222;28;20216;-67
2023/11/25 04:45:16;;;;;;;4.20;1.03;;;-0.50;99.90;;;;;;2086126;28;20256;-67
2023/11/25 04:46:17;;;;;;;2.67;0.80;;;-0.50;99.90;;;;;;2083574;28;20295;-67
2023/11/25 04:47:17;;;;;;;1.17;0.70;;;-0.50;99.90;;;;;;2087417;28;20285;-67
2023/11/25 04:48:19;;;;;;;4.23;1.13;;;-0.50;99.90;;;;;;2083811;28;20298;-67
2023/11/25 04:49:21;;;;;;;2.78;1.10;;;-0.40;99.90;;;;;;2082356;28;20229;-67
2023/11/25 04:50:26;;;;;;;1.65;1.08;;;-0.40;99.90;;;;;;2090524;28;20226;-67
2023/11/25 04:51:28;;;;;;;3.00;1.10;;;-0.40;99.90;;;;;;2093417;28;20229;-67
2023/11/25 04:52:29;;;;;;;2.70;1.05;;;-0.40;99.90;;;;;;2095488;28;20231;-67
2023/11/25 04:53:29;;;;;;;3.07;1.03;;;-0.40;99.90;;;;;;2093220;28;20653;-67
2023/11/25 04:54:30;;;;;;;4.47;1.47;;;-0.30;99.90;;;;;;2087020;28;20271;-67
2023/11/25 04:55:31;;;;;;;2.03;1.33;;;-0.40;99.90;;;;;;2093158;28;20235;-67
2023/11/25 04:56:32;;;;;;;1.98;1.00;;;-0.40;99.90;;;;;;2092617;28;20263;-67
2023/11/25 04:57:33;;;;;;;1.73;0.80;;;-0.50;99.90;;;;;;2093408;28;20230;-67
2023/11/25 04:58:34;;;;;;;2.93;1.10;;;-0.50;99.90;;;;;;2093955;28;20228;-67
2023/11/25 04:59:35;;;;;;;4.43;1.17;;;-0.40;99.90;;;;;;2093701;28;20227;-67
2023/11/25 05:00:36;;;;;;;3.78;1.23;;;-0.40;99.90;;;;;;2093288;28;20311;-67
2023/11/25 05:01:38;;;;;;;4.13;1.23;;;-0.40;99.90;;;;;;2080994;28;20229;-67
2023/11/25 05:02:41;;;;;;;1.60;1.10;;;-0.40;99.90;;;;;;2080340;28;20229;-67
2023/11/25 05:03:42;;;;;;;2.65;1.50;;;-0.50;99.90;;;;;;2092570;28;20594;-67
2023/11/25 05:04:43;;;;;;;2.63;1.10;;;-0.40;99.90;;;;;;2092742;28;20255;-67
2023/11/25 05:05:45;;;;;;;5.90;1.55;;;-0.60;99.90;;;;;;2093952;28;20228;-67
2023/11/25 05:06:46;;;;;;;1.40;0.98;;;-0.60;99.90;;;;;;2087263;28;20237;-67
2023/11/25 05:07:47;;;;;;;5.28;1.75;;;-0.60;99.90;;;;;;2092030;28;20223;-67
2023/11/25 05:08:48;;;;;;;1.70;0.83;;;-0.70;99.90;;;;;;2082692;28;20224;-67
2023/11/25 05:09:48;;;;;;;1.33;0.83;;;-0.70;99.90;;;;;;2086893;28;20215;-67
2023/11/25 05:10:49;;;;;;;1.27;0.70;;;-0.80;99.90;;;;;;2095820;28;20221;-67
2023/11/25 05:11:50;;;;;;;2.60;0.90;;;-0.80;99.90;;;;;;2095684;28;20223;-67
2023/11/25 05:12:50;;;;;;;2.47;1.23;;;-0.80;99.90;;;;;;2095854;28;20223;-67
2023/11/25 05:13:51;;;;;;;2.30;0.90;;;-0.80;99.90;;;;;;2094462;28;20256;-68
2023/11/25 05:14:52;;;;;;;2.47;0.97;;;-0.90;99.90;;;;;;2096074;28;20234;-67
2023/11/25 05:15:53;;;;;;;6.97;1.60;;;-0.90;99.90;;;;;;2078446;28;20292;-67
2023/11/25 05:16:55;;;;;;;5.40;1.52;;;-0.90;99.90;;;;;;2087566;28;20185;-67
2023/11/25 05:17:56;;;;;;;2.63;0.88;;;-1.00;99.90;;;;;;2087428;28;20320;-67
2023/11/25 05:18:57;;;;;;;3.53;1.47;;;-1.10;99.90;;;;;;2090677;28;20191;-67
2023/11/25 05:19:57;;;;;;;1.73;1.20;;;-1.10;99.90;;;;;;2095273;28;20184;-67
2023/11/25 05:20:58;;;;;;;1.73;1.47;;;-1.20;99.90;;;;;;2087395;28;20177;-67
2023/11/25 05:21:59;;;;;;;4.40;1.07;;;-1.20;99.90;;;;;;2091018;28;20185;-66